createdAt,value
2022-08-20T00:00:29.213Z,91.2
2022-08-20T00:01:38.330Z,90.9
2022-08-20T00:02:48.452Z,90.8
2022-08-20T00:03:58.573Z,90.9
2022-08-20T00:05:08.690Z,91
2022-08-20T00:07:28.930Z,91.1
2022-08-20T00:08:39.053Z,90.9
2022-08-20T00:09:49.156Z,88.4
2022-08-20T00:10:59.281Z,88.7
2022-08-20T00:12:09.402Z,88.5
2022-08-20T00:13:19.518Z,88.7
2022-08-20T00:14:29.645Z,88.5
2022-08-20T00:15:39.760Z,88.3
2022-08-20T00:16:48.890Z,88.4
2022-08-20T00:17:59.008Z,88.3
2022-08-20T00:20:19.234Z,88.8
2022-08-20T00:21:28.394Z,89.3
2022-08-20T00:22:37.515Z,88.5
2022-08-20T00:23:47.644Z,89.4
2022-08-20T00:24:57.764Z,89.1
2022-08-20T00:26:07.868Z,89.1
2022-08-20T00:27:17.988Z,89
2022-08-20T00:28:28.102Z,89.4
2022-08-20T00:29:38.222Z,89.6
2022-08-20T00:30:48.354Z,89.7
2022-08-20T00:31:58.463Z,89.4
2022-08-20T00:33:08.587Z,89.4
2022-08-20T00:34:17.730Z,90.1
2022-08-20T00:35:27.973Z,90.3
2022-08-20T00:36:38.082Z,90.2
2022-08-20T00:37:48.207Z,90.1
2022-08-20T00:38:58.311Z,90.3
2022-08-20T00:40:08.443Z,90.3
2022-08-20T00:41:18.546Z,90.5
2022-08-20T00:42:28.663Z,90.5
2022-08-20T00:43:38.787Z,90.5
2022-08-20T00:44:48.911Z,90.9
2022-08-20T00:45:59.021Z,91
2022-08-20T00:47:09.137Z,90.9
2022-08-20T00:48:19.252Z,91
2022-08-20T00:49:29.370Z,91.1
2022-08-20T00:50:38.518Z,91.2
2022-08-20T00:51:48.640Z,91.3
2022-08-20T00:52:58.755Z,91
2022-08-20T00:54:08.860Z,91.4
2022-08-20T00:55:18.985Z,90.9
2022-08-20T00:56:29.113Z,91.4
2022-08-20T00:57:39.216Z,91.6
2022-08-20T00:58:48.357Z,90.9
2022-08-20T00:59:57.492Z,90.7
2022-08-20T01:01:06.652Z,90.6
2022-08-20T01:02:16.770Z,90.6
2022-08-20T01:03:25.903Z,90.9
2022-08-20T01:04:36.010Z,91.2
2022-08-20T01:05:46.131Z,91
2022-08-20T01:06:56.247Z,90.8
2022-08-20T01:08:06.378Z,91
2022-08-20T01:09:16.496Z,91.1
2022-08-20T01:10:26.604Z,91.6
2022-08-20T01:11:36.727Z,91.5
2022-08-20T01:12:46.845Z,91.9
2022-08-20T01:13:56.956Z,91.8
2022-08-20T01:15:07.071Z,92.3
2022-08-20T01:16:17.195Z,92.4
2022-08-20T01:17:27.310Z,92.5
2022-08-20T01:18:36.447Z,92.5
2022-08-20T01:19:46.557Z,92.7
2022-08-20T01:20:56.676Z,92.4
2022-08-20T01:22:06.811Z,92.7
2022-08-20T01:23:16.912Z,93.2
2022-08-20T01:24:27.027Z,93.6
2022-08-20T01:25:36.186Z,93.1
2022-08-20T01:26:45.316Z,92.6
2022-08-20T01:27:54.454Z,92.9
2022-08-20T01:29:03.590Z,93.4
2022-08-20T01:30:13.711Z,93.2
2022-08-20T01:31:23.836Z,93.7
2022-08-20T01:32:33.941Z,94.3
2022-08-20T01:33:44.072Z,94.7
2022-08-20T01:34:54.173Z,94.8
2022-08-20T01:36:04.298Z,93.8
2022-08-20T01:37:14.416Z,94
2022-08-20T01:38:24.535Z,94.3
2022-08-20T01:39:34.649Z,94.1
2022-08-20T01:40:44.773Z,93.5
2022-08-20T01:41:54.898Z,93.3
2022-08-20T01:43:05.009Z,93.2
2022-08-20T01:44:14.144Z,93
2022-08-20T01:45:24.266Z,93.1
2022-08-20T01:46:34.385Z,93.6
2022-08-20T01:47:44.000Z,94
2022-08-20T01:48:54.619Z,94.6
2022-08-20T01:50:04.723Z,95
2022-08-20T01:51:14.849Z,95.1
2022-08-20T01:52:23.999Z,94.3
2022-08-20T01:53:33.120Z,93.3
2022-08-20T01:54:43.246Z,93.9
2022-08-20T01:55:52.383Z,93
2022-08-20T01:57:02.500Z,93.1
2022-08-20T01:58:12.633Z,92.6
2022-08-20T01:59:21.754Z,92.9
2022-08-20T02:00:31.885Z,93.1
2022-08-20T02:01:42.006Z,92.9
2022-08-20T02:02:52.135Z,92.3
2022-08-20T02:04:02.231Z,93
2022-08-20T02:05:12.344Z,92.9
2022-08-20T02:06:22.472Z,93.2
2022-08-20T02:07:32.588Z,92.6
2022-08-20T02:08:42.699Z,93
2022-08-20T02:09:52.815Z,92.3
2022-08-20T02:11:02.000Z,92.4
2022-08-20T02:12:13.048Z,92.3
2022-08-20T02:13:23.174Z,93.4
2022-08-20T02:14:32.305Z,92.9
2022-08-20T02:15:42.436Z,92.6
2022-08-20T02:16:52.538Z,93
2022-08-20T02:18:02.661Z,93
2022-08-20T02:19:12.777Z,93.4
2022-08-20T02:20:21.930Z,92.4
2022-08-20T02:21:31.068Z,92.6
2022-08-20T02:22:40.193Z,92.2
2022-08-20T02:23:49.344Z,91.8
2022-08-20T02:24:58.482Z,92.3
2022-08-20T02:26:07.612Z,91.9
2022-08-20T02:27:17.730Z,92.7
2022-08-20T02:28:27.853Z,93.5
2022-08-20T02:29:37.976Z,93.2
2022-08-20T02:30:48.087Z,91.8
2022-08-20T02:31:58.204Z,92.3
2022-08-20T02:33:08.312Z,93.7
2022-08-20T02:34:18.440Z,94.2
2022-08-20T02:35:28.548Z,92.7
2022-08-20T02:36:38.672Z,91.7
2022-08-20T02:37:48.792Z,91.7
2022-08-20T02:38:58.911Z,91.5
2022-08-20T02:40:09.026Z,91.7
2022-08-20T02:41:18.164Z,90.9
2022-08-20T02:42:28.288Z,91.9
2022-08-20T02:43:38.406Z,92.1
2022-08-20T02:44:48.506Z,92.6
2022-08-20T02:45:58.626Z,93.6
2022-08-20T02:47:08.762Z,92.2
2022-08-20T02:48:18.865Z,92.6
2022-08-20T02:49:28.000Z,92.8
2022-08-20T02:50:37.146Z,90.7
2022-08-20T02:51:47.256Z,90.7
2022-08-20T02:52:57.385Z,90.3
2022-08-20T02:54:07.504Z,91.4
2022-08-20T02:55:17.610Z,91
2022-08-20T02:56:27.734Z,91
2022-08-20T02:57:37.846Z,91.7
2022-08-20T02:58:47.968Z,92.4
2022-08-20T02:59:58.090Z,91.5
2022-08-20T03:01:08.210Z,91
2022-08-20T03:02:18.334Z,91.7
2022-08-20T03:03:28.450Z,92
2022-08-20T03:04:38.553Z,92.4
2022-08-20T03:05:47.691Z,93.5
2022-08-20T03:06:57.805Z,92
2022-08-20T03:08:07.943Z,92.3
2022-08-20T03:09:18.047Z,93
2022-08-20T03:10:28.160Z,93.7
2022-08-20T03:11:38.000Z,92.8
2022-08-20T03:12:48.400Z,93.8
2022-08-20T03:13:57.554Z,94.1
2022-08-20T03:15:07.664Z,93.7
2022-08-20T03:16:16.803Z,93.8
2022-08-20T03:17:25.949Z,94.2
2022-08-20T03:18:36.068Z,94.4
2022-08-20T03:19:46.177Z,96
2022-08-20T03:20:56.301Z,95
2022-08-20T03:22:06.425Z,94
2022-08-20T03:24:26.658Z,93.7
2022-08-20T03:25:36.772Z,93.6
2022-08-20T03:26:46.896Z,93.5
2022-08-20T03:27:57.004Z,93.2
2022-08-20T03:29:07.119Z,93.3
2022-08-20T03:30:17.251Z,92.8
2022-08-20T03:31:27.358Z,92.9
2022-08-20T03:32:36.491Z,93.3
2022-08-20T03:33:46.617Z,93.6
2022-08-20T03:34:56.740Z,93.5
2022-08-20T03:36:06.841Z,92.2
2022-08-20T03:37:16.974Z,92.7
2022-08-20T03:38:27.083Z,92.3
2022-08-20T03:39:37.197Z,92.2
2022-08-20T03:40:47.321Z,93.1
2022-08-20T03:41:56.459Z,93.6
2022-08-20T03:43:05.595Z,93.5
2022-08-20T03:44:15.713Z,93.6
2022-08-20T03:45:25.845Z,94.1
2022-08-20T03:46:34.973Z,93
2022-08-20T03:47:44.107Z,93.1
2022-08-20T03:48:54.232Z,93.5
2022-08-20T03:50:04.356Z,93.3
2022-08-20T03:51:14.465Z,93.7
2022-08-20T03:52:24.591Z,93.6
2022-08-20T03:53:34.701Z,93.2
2022-08-20T03:54:44.831Z,92.7
2022-08-20T03:55:54.945Z,92.3
2022-08-20T03:57:05.065Z,92.7
2022-08-20T03:58:15.186Z,93.2
2022-08-20T03:59:25.287Z,93.7
2022-08-20T04:00:35.409Z,93.7
2022-08-20T04:01:45.521Z,92.3
2022-08-20T04:02:54.659Z,92.5
2022-08-20T04:04:04.777Z,93.9
2022-08-20T04:05:14.905Z,94.1
2022-08-20T04:07:35.138Z,93.7
2022-08-20T04:08:45.262Z,93.1
2022-08-20T04:09:55.368Z,92.4
2022-08-20T04:11:05.492Z,92.9
2022-08-20T04:12:15.599Z,93.5
2022-08-20T04:13:24.761Z,93.8
2022-08-20T04:14:33.888Z,94
2022-08-20T04:15:43.994Z,94.3
2022-08-20T04:16:54.128Z,93.1
2022-08-20T04:18:04.246Z,91.7
2022-08-20T04:19:14.367Z,92.3
2022-08-20T04:20:24.483Z,92.9
2022-08-20T04:21:34.589Z,93.6
2022-08-20T04:22:44.714Z,94
2022-08-20T04:23:54.834Z,94.3
2022-08-20T04:25:04.944Z,94.7
2022-08-20T04:26:15.074Z,94.2
2022-08-20T04:27:25.181Z,93.5
2022-08-20T04:28:35.308Z,92.1
2022-08-20T04:29:44.427Z,92
2022-08-20T04:30:54.564Z,92.2
2022-08-20T04:32:04.672Z,93
2022-08-20T04:33:14.000Z,93.7
2022-08-20T04:34:24.918Z,91.7
2022-08-20T04:35:35.016Z,91.8
2022-08-20T04:36:45.142Z,92.4
2022-08-20T04:37:54.287Z,94.3
2022-08-20T04:39:03.429Z,93.7
2022-08-20T04:40:12.569Z,94.2
2022-08-20T04:41:21.703Z,94.3
2022-08-20T04:42:31.824Z,94.1
2022-08-20T04:43:41.932Z,93.7
2022-08-20T04:44:52.046Z,93.8
2022-08-20T04:46:02.171Z,93.8
2022-08-20T04:47:12.295Z,92.9
2022-08-20T04:48:22.407Z,91.4
2022-08-20T04:49:32.520Z,91.2
2022-08-20T04:50:42.646Z,91.5
2022-08-20T04:51:52.765Z,91.5
2022-08-20T04:53:02.880Z,91.1
2022-08-20T04:54:12.992Z,91.2
2022-08-20T04:55:22.128Z,91.2
2022-08-20T04:56:32.252Z,91.3
2022-08-20T04:57:42.375Z,91.8
2022-08-20T04:58:52.483Z,92.7
2022-08-20T05:00:02.618Z,93.2
2022-08-20T05:01:12.726Z,92
2022-08-20T05:02:22.855Z,92.3
2022-08-20T05:03:32.953Z,91.5
2022-08-20T05:04:42.107Z,91.4
2022-08-20T05:05:51.241Z,91.1
2022-08-20T05:07:01.362Z,92
2022-08-20T05:08:11.487Z,92
2022-08-20T05:09:21.604Z,91.4
2022-08-20T05:10:31.723Z,93.7
2022-08-20T05:11:41.829Z,91.8
2022-08-20T05:12:51.947Z,92.3
2022-08-20T05:14:02.069Z,91.3
2022-08-20T05:15:12.186Z,91
2022-08-20T05:16:22.311Z,90.7
2022-08-20T05:17:32.425Z,91.7
2022-08-20T05:18:42.542Z,91.8
2022-08-20T05:19:52.662Z,91.8
2022-08-20T05:21:01.792Z,91.4
2022-08-20T05:22:11.909Z,90.9
2022-08-20T05:23:22.018Z,91.3
2022-08-20T05:24:32.149Z,91.5
2022-08-20T05:25:42.259Z,92.3
2022-08-20T05:26:52.381Z,91.1
2022-08-20T05:28:02.494Z,91
2022-08-20T05:29:11.638Z,91.5
2022-08-20T05:30:20.768Z,92.7
2022-08-20T05:31:29.917Z,92.2
2022-08-20T05:32:39.064Z,92.8
2022-08-20T05:33:49.175Z,92.3
2022-08-20T05:34:59.298Z,91.8
2022-08-20T05:36:09.413Z,92.4
2022-08-20T05:37:19.528Z,92.9
2022-08-20T05:38:29.643Z,93.4
2022-08-20T05:39:39.754Z,94.1
2022-08-20T05:40:49.883Z,93.7
2022-08-20T05:41:59.990Z,94
2022-08-20T05:43:10.109Z,92
2022-08-20T05:44:20.240Z,91.7
2022-08-20T05:45:30.342Z,92.7
2022-08-20T05:46:40.461Z,93.9
2022-08-20T05:47:49.609Z,93.3
2022-08-20T05:48:59.711Z,92.2
2022-08-20T05:50:09.829Z,93.3
2022-08-20T05:51:19.957Z,93
2022-08-20T05:52:30.065Z,92.7
2022-08-20T05:53:40.196Z,92.6
2022-08-20T05:54:50.304Z,92.1
2022-08-20T05:55:59.444Z,93.1
2022-08-20T05:57:09.565Z,93
2022-08-20T05:58:18.725Z,91.5
2022-08-20T05:59:27.844Z,91.3
2022-08-20T06:00:36.986Z,90.7
2022-08-20T06:01:46.134Z,89.8
2022-08-20T06:02:56.237Z,89.9
2022-08-20T06:04:06.370Z,90
2022-08-20T06:05:16.474Z,91.2
2022-08-20T06:06:26.598Z,92
2022-08-20T06:07:36.716Z,91.4
2022-08-20T06:08:46.844Z,92.1
2022-08-20T06:09:56.953Z,91.9
2022-08-20T06:11:07.075Z,90.5
2022-08-20T06:12:17.192Z,88.4
2022-08-20T06:13:27.305Z,90.5
2022-08-20T06:15:47.541Z,88.8
2022-08-20T06:16:57.667Z,90.2
2022-08-20T06:18:07.778Z,90.9
2022-08-20T06:19:16.922Z,88.8
2022-08-20T06:20:27.023Z,90.1
2022-08-20T06:21:37.139Z,90.8
2022-08-20T06:22:47.259Z,89.7
2022-08-20T06:23:57.376Z,90.6
2022-08-20T06:25:07.502Z,88.3
2022-08-20T06:26:16.647Z,91
2022-08-20T06:27:25.789Z,90
2022-08-20T06:28:35.908Z,90.9
2022-08-20T06:29:46.019Z,91.3
2022-08-20T06:30:55.151Z,90.6
2022-08-20T06:32:04.000Z,89.3
2022-08-20T06:33:14.419Z,87.3
2022-08-20T06:34:24.532Z,87.5
2022-08-20T06:35:34.645Z,87.8
2022-08-20T06:36:44.776Z,88
2022-08-20T06:37:54.890Z,90.4
2022-08-20T06:39:05.010Z,90.7
2022-08-20T06:40:15.113Z,90.5
2022-08-20T06:41:25.238Z,91.8
2022-08-20T06:42:35.355Z,92.1
2022-08-20T06:43:45.473Z,92.1
2022-08-20T06:44:55.586Z,92.2
2022-08-20T06:46:05.700Z,89.7
2022-08-20T06:47:14.851Z,89.7
2022-08-20T06:48:24.969Z,90.2
2022-08-20T06:49:35.088Z,90.6
2022-08-20T06:51:55.312Z,89.5
2022-08-20T06:53:05.427Z,90.7
2022-08-20T06:54:15.545Z,91
2022-08-20T06:55:25.667Z,90.5
2022-08-20T06:56:35.940Z,90.2
2022-08-20T06:57:45.072Z,90.4
2022-08-20T06:58:54.205Z,90.3
2022-08-20T07:00:03.346Z,90.6
2022-08-20T07:01:13.458Z,87.8
2022-08-20T07:02:23.588Z,88.7
2022-08-20T07:03:33.690Z,88.6
2022-08-20T07:04:43.000Z,88.6
2022-08-20T07:05:53.932Z,89.1
2022-08-20T07:07:04.053Z,89.9
2022-08-20T07:08:14.178Z,90.8
2022-08-20T07:09:24.292Z,90.7
2022-08-20T07:10:34.407Z,90.1
2022-08-20T07:11:44.527Z,90.7
2022-08-20T07:12:54.646Z,91.1
2022-08-20T07:14:04.755Z,91.1
2022-08-20T07:15:13.886Z,91.5
2022-08-20T07:16:24.011Z,91.5
2022-08-20T07:17:34.125Z,91.6
2022-08-20T07:18:44.248Z,91.2
2022-08-20T07:19:54.362Z,91.5
2022-08-20T07:21:04.494Z,91.3
2022-08-20T07:22:14.597Z,91.1
2022-08-20T07:23:23.744Z,91.6
2022-08-20T07:24:32.888Z,89.7
2022-08-20T07:25:42.022Z,90.8
2022-08-20T07:26:51.151Z,91.2
2022-08-20T07:28:01.286Z,89.9
2022-08-20T07:29:11.400Z,87.5
2022-08-20T07:30:21.507Z,87.7
2022-08-20T07:31:31.636Z,89.3
2022-08-20T07:32:41.763Z,90.9
2022-08-20T07:33:51.863Z,92
2022-08-20T07:35:01.986Z,90.2
2022-08-20T07:36:12.098Z,90.1
2022-08-20T07:37:22.216Z,89.8
2022-08-20T07:38:32.343Z,91.5
2022-08-20T07:39:42.456Z,91.7
2022-08-20T07:40:52.568Z,91
2022-08-20T07:42:01.708Z,90.7
2022-08-20T07:43:11.817Z,91.2
2022-08-20T07:44:21.947Z,90.9
2022-08-20T07:45:32.057Z,90.5
2022-08-20T07:46:42.175Z,87.8
2022-08-20T07:47:52.287Z,88.5
2022-08-20T07:49:02.425Z,88.8
2022-08-20T07:50:11.568Z,89.9
2022-08-20T07:51:20.703Z,90.6
2022-08-20T07:52:29.844Z,89.3
2022-08-20T07:53:38.966Z,90.4
2022-08-20T07:54:49.094Z,90.9
2022-08-20T07:55:59.202Z,88.7
2022-08-20T07:57:09.322Z,90.1
2022-08-20T07:58:19.435Z,91.4
2022-08-20T07:59:29.561Z,91.8
2022-08-20T08:00:39.690Z,92.2
2022-08-20T08:01:49.796Z,91.1
2022-08-20T08:02:59.909Z,91
2022-08-20T08:04:10.040Z,91.1
2022-08-20T08:05:20.162Z,92.6
2022-08-20T08:06:30.260Z,90.3
2022-08-20T08:07:40.378Z,91.4
2022-08-20T08:08:49.514Z,90.9
2022-08-20T08:09:59.633Z,91.3
2022-08-20T08:11:09.764Z,91.1
2022-08-20T08:12:19.877Z,90.3
2022-08-20T08:13:29.995Z,92.1
2022-08-20T08:14:40.106Z,91.8
2022-08-20T08:15:50.230Z,91.9
2022-08-20T08:16:59.365Z,90.7
2022-08-20T08:18:08.512Z,91.1
2022-08-20T08:19:17.647Z,91.6
2022-08-20T08:20:26.792Z,91.1
2022-08-20T08:21:36.901Z,90
2022-08-20T08:22:47.023Z,88.3
2022-08-20T08:23:57.141Z,89.1
2022-08-20T08:25:07.268Z,90.2
2022-08-20T08:26:17.370Z,90.1
2022-08-20T08:27:27.503Z,90.6
2022-08-20T08:28:37.608Z,90.6
2022-08-20T08:29:47.725Z,91
2022-08-20T08:30:57.858Z,91.1
2022-08-20T08:32:07.962Z,90.9
2022-08-20T08:33:18.084Z,90.9
2022-08-20T08:34:28.194Z,90.6
2022-08-20T08:35:37.340Z,89.7
2022-08-20T08:36:47.447Z,90.8
2022-08-20T08:37:57.576Z,90.9
2022-08-20T08:39:07.699Z,91.4
2022-08-20T08:40:17.815Z,92.2
2022-08-20T08:41:27.930Z,91.1
2022-08-20T08:42:38.043Z,91.8
2022-08-20T08:43:48.169Z,92.2
2022-08-20T08:44:57.306Z,92.4
2022-08-20T08:46:06.443Z,92.5
2022-08-20T08:47:15.591Z,91
2022-08-20T08:48:24.719Z,90.8
2022-08-20T08:49:33.856Z,91.6
2022-08-20T08:50:43.971Z,90.6
2022-08-20T08:51:54.091Z,91.4
2022-08-20T08:53:04.211Z,91.2
2022-08-20T08:54:14.326Z,91.9
2022-08-20T08:55:24.445Z,89.8
2022-08-20T08:56:34.560Z,88.2
2022-08-20T08:57:44.694Z,88.4
2022-08-20T08:58:54.801Z,88.6
2022-08-20T09:00:04.915Z,89
2022-08-20T09:01:15.029Z,89.1
2022-08-20T09:02:25.166Z,87.7
2022-08-20T09:03:35.271Z,87.5
2022-08-20T09:04:44.414Z,88.2
2022-08-20T09:05:54.525Z,87
2022-08-20T09:07:04.650Z,88
2022-08-20T09:08:14.770Z,88
2022-08-20T09:09:24.888Z,88.4
2022-08-20T09:10:34.988Z,90.3
2022-08-20T09:11:44.137Z,90
2022-08-20T09:12:54.256Z,89.6
2022-08-20T09:14:03.399Z,86.5
2022-08-20T09:15:12.532Z,87
2022-08-20T09:16:22.659Z,88.4
2022-08-20T09:17:32.784Z,88.5
2022-08-20T09:18:42.895Z,89.6
2022-08-20T09:19:53.009Z,88.5
2022-08-20T09:21:03.133Z,91.4
2022-08-20T09:22:13.243Z,91.5
2022-08-20T09:23:23.357Z,89.3
2022-08-20T09:24:33.475Z,88.9
2022-08-20T09:25:43.596Z,89.1
2022-08-20T09:26:53.718Z,88.8
2022-08-20T09:28:03.834Z,90.8
2022-08-20T09:29:13.950Z,92.1
2022-08-20T09:30:24.068Z,92.1
2022-08-20T09:31:33.214Z,92.4
2022-08-20T09:32:43.321Z,92.4
2022-08-20T09:33:53.435Z,90.1
2022-08-20T09:35:03.566Z,90.1
2022-08-20T09:36:13.676Z,90.5
2022-08-20T09:37:23.797Z,90.5
2022-08-20T09:38:32.943Z,89.2
2022-08-20T09:39:42.074Z,91.4
2022-08-20T09:40:52.201Z,89.5
2022-08-20T09:42:01.330Z,88.3
2022-08-20T09:43:10.472Z,89.2
2022-08-20T09:44:20.583Z,89.9
2022-08-20T09:45:30.698Z,87
2022-08-20T09:46:40.834Z,86.5
2022-08-20T09:47:50.933Z,87.6
2022-08-20T09:49:01.051Z,89.2
2022-08-20T09:50:11.188Z,89.4
2022-08-20T09:51:21.289Z,90.1
2022-08-20T09:52:31.423Z,89.2
2022-08-20T09:53:41.537Z,89.9
2022-08-20T09:54:51.652Z,88.4
2022-08-20T09:56:01.759Z,86.4
2022-08-20T09:57:11.883Z,88.1
2022-08-20T09:58:21.024Z,88.8
2022-08-20T09:59:31.135Z,89.5
2022-08-20T10:01:51.376Z,87.9
2022-08-20T10:03:01.498Z,86.8
2022-08-20T10:04:11.613Z,84.9
2022-08-20T10:05:21.736Z,85.6
2022-08-20T10:06:31.853Z,86
2022-08-20T10:07:40.987Z,85.8
2022-08-20T10:08:50.125Z,85.8
2022-08-20T10:09:59.258Z,86.9
2022-08-20T10:11:08.398Z,87.1
2022-08-20T10:12:18.512Z,87.7
2022-08-20T10:13:28.630Z,86.6
2022-08-20T10:14:38.758Z,87.3
2022-08-20T10:15:48.877Z,87.5
2022-08-20T10:16:59.000Z,87.3
2022-08-20T10:18:09.106Z,85.9
2022-08-20T10:19:19.216Z,86.7
2022-08-20T10:20:29.344Z,86.4
2022-08-20T10:21:39.464Z,86.3
2022-08-20T10:22:49.572Z,86.4
2022-08-20T10:23:59.693Z,86.7
2022-08-20T10:25:09.815Z,86.3
2022-08-20T10:26:18.942Z,87.4
2022-08-20T10:27:29.066Z,88.8
2022-08-20T10:28:39.180Z,87.2
2022-08-20T10:29:49.294Z,88.3
2022-08-20T10:30:59.413Z,90.4
2022-08-20T10:32:09.529Z,88.1
2022-08-20T10:33:19.647Z,87.1
2022-08-20T10:34:28.799Z,86.2
2022-08-20T10:35:37.940Z,86
2022-08-20T10:36:48.054Z,86.1
2022-08-20T10:37:57.197Z,87.5
2022-08-20T10:39:06.330Z,88.5
2022-08-20T10:40:16.443Z,85.6
2022-08-20T10:42:36.676Z,86.3
2022-08-20T10:43:46.800Z,83.8
2022-08-20T10:44:56.921Z,83.5
2022-08-20T10:46:07.047Z,83.7
2022-08-20T10:47:17.166Z,84.1
2022-08-20T10:48:27.281Z,85
2022-08-20T10:49:37.393Z,83.7
2022-08-20T10:50:47.504Z,83.1
2022-08-20T10:51:57.626Z,83.4
2022-08-20T10:53:07.744Z,83.1
2022-08-20T10:54:16.874Z,83.7
2022-08-20T10:55:26.994Z,82.8
2022-08-20T10:56:37.114Z,83.4
2022-08-20T10:57:47.228Z,83.6
2022-08-20T10:58:57.342Z,84.3
2022-08-20T11:00:07.466Z,86.2
2022-08-20T11:01:17.592Z,87
2022-08-20T11:02:27.698Z,82.7
2022-08-20T11:03:37.828Z,83.1
2022-08-20T11:04:46.963Z,82.8
2022-08-20T11:05:56.109Z,82
2022-08-20T11:07:05.249Z,81.7
2022-08-20T11:08:15.483Z,82.3
2022-08-20T11:09:24.634Z,82.1
2022-08-20T11:10:33.765Z,79.4
2022-08-20T11:11:43.881Z,79.5
2022-08-20T11:12:54.003Z,84.1
2022-08-20T11:14:04.108Z,79.7
2022-08-20T11:15:14.234Z,77.3
2022-08-20T11:16:24.346Z,79.8
2022-08-20T11:17:34.463Z,81.1
2022-08-20T11:18:44.579Z,82.8
2022-08-20T11:19:54.706Z,83.5
2022-08-20T11:21:04.816Z,84.5
2022-08-20T11:22:14.951Z,79.9
2022-08-20T11:23:25.053Z,79.9
2022-08-20T11:24:35.187Z,78.1
2022-08-20T11:25:44.317Z,78
2022-08-20T11:26:54.428Z,78.8
2022-08-20T11:28:04.549Z,77.9
2022-08-20T11:29:14.662Z,78.7
2022-08-20T11:30:24.780Z,78
2022-08-20T11:31:34.907Z,76.9
2022-08-20T11:32:45.029Z,76.5
2022-08-20T11:33:54.162Z,77.7
2022-08-20T11:35:03.306Z,78.3
2022-08-20T11:36:13.417Z,75.2
2022-08-20T11:37:23.540Z,76.2
2022-08-20T11:38:33.643Z,78
2022-08-20T11:39:43.761Z,80.4
2022-08-20T11:40:53.888Z,80.7
2022-08-20T11:42:04.005Z,80.3
2022-08-20T11:43:14.123Z,78.1
2022-08-20T11:44:24.243Z,79
2022-08-20T11:45:34.360Z,80.4
2022-08-20T11:46:44.469Z,80.4
2022-08-20T11:47:54.604Z,77.8
2022-08-20T11:49:04.719Z,78.8
2022-08-20T11:50:13.848Z,77.5
2022-08-20T11:52:34.077Z,77.2
2022-08-20T11:53:44.193Z,77.8
2022-08-20T11:54:54.309Z,75.9
2022-08-20T11:56:04.439Z,78.2
2022-08-20T11:57:14.553Z,79.1
2022-08-20T11:58:24.677Z,78.1
2022-08-20T11:59:33.809Z,77.4
2022-08-20T12:00:42.950Z,75.3
2022-08-20T12:01:52.096Z,73.7
2022-08-20T12:03:01.238Z,75.1
2022-08-20T12:04:10.381Z,75.8
2022-08-20T12:05:19.516Z,80.1
2022-08-20T12:06:29.623Z,78.5
2022-08-20T12:07:39.747Z,77.8
2022-08-20T12:08:49.854Z,74.9
2022-08-20T12:09:59.987Z,73.6
2022-08-20T12:11:10.091Z,74.3
2022-08-20T12:12:20.217Z,75.6
2022-08-20T12:13:30.338Z,75.5
2022-08-20T12:14:40.460Z,75.4
2022-08-20T12:15:50.564Z,74
2022-08-20T12:17:00.682Z,74.5
2022-08-20T12:18:10.804Z,73.9
2022-08-20T12:19:20.918Z,74.3
2022-08-20T12:20:30.064Z,72.7
2022-08-20T12:21:40.171Z,74.4
2022-08-20T12:22:50.000Z,73.4
2022-08-20T12:24:00.410Z,72.5
2022-08-20T12:25:10.524Z,76.1
2022-08-20T12:26:20.654Z,74.6
2022-08-20T12:27:30.772Z,74
2022-08-20T12:28:41.027Z,73.6
2022-08-20T12:29:50.170Z,75.4
2022-08-20T12:30:59.308Z,73.8
2022-08-20T12:32:08.439Z,76.6
2022-08-20T12:33:18.560Z,78.9
2022-08-20T12:34:28.672Z,77.3
2022-08-20T12:35:38.793Z,80.4
2022-08-20T12:36:48.908Z,74.8
2022-08-20T12:37:59.024Z,75.6
2022-08-20T12:39:09.158Z,79.9
2022-08-20T12:40:19.270Z,83.1
2022-08-20T12:41:29.388Z,76
2022-08-20T12:42:39.507Z,81.4
2022-08-20T12:43:48.645Z,80.7
2022-08-20T12:44:58.753Z,82.6
2022-08-20T12:46:08.881Z,80
2022-08-20T12:47:18.996Z,77.8
2022-08-20T12:48:29.125Z,82
2022-08-20T12:49:39.240Z,80.1
2022-08-20T12:50:49.362Z,79.2
2022-08-20T12:51:59.478Z,79.1
2022-08-20T12:53:09.586Z,79
2022-08-20T12:54:19.700Z,79
2022-08-20T12:55:28.850Z,80
2022-08-20T12:56:37.988Z,80.8
2022-08-20T12:57:48.000Z,78.6
2022-08-20T12:58:57.242Z,81
2022-08-20T13:00:06.387Z,80
2022-08-20T13:01:16.000Z,80.8
2022-08-20T13:02:26.609Z,80.2
2022-08-20T13:03:36.726Z,81.4
2022-08-20T13:04:46.860Z,81
2022-08-20T13:05:56.972Z,80.2
2022-08-20T13:07:07.082Z,81.2
2022-08-20T13:08:17.215Z,80.9
2022-08-20T13:09:27.328Z,80.5
2022-08-20T13:10:37.450Z,80.5
2022-08-20T13:11:47.561Z,81.7
2022-08-20T13:12:57.672Z,80.7
2022-08-20T13:14:07.800Z,81.3
2022-08-20T13:15:16.932Z,81
2022-08-20T13:16:27.045Z,81.3
2022-08-20T13:17:37.172Z,80.8
2022-08-20T13:18:47.282Z,81.7
2022-08-20T13:19:57.397Z,81.1
2022-08-20T13:21:07.517Z,80.1
2022-08-20T13:22:17.638Z,79.9
2022-08-20T13:23:26.773Z,81
2022-08-20T13:24:35.913Z,82
2022-08-20T13:25:45.066Z,82.4
2022-08-20T13:26:54.190Z,82
2022-08-20T13:28:04.310Z,82.3
2022-08-20T13:30:23.583Z,81.1
2022-08-20T13:31:32.728Z,81.1
2022-08-20T13:32:41.850Z,82.1
2022-08-20T13:33:51.974Z,82.1
2022-08-20T13:35:02.092Z,82.2
2022-08-20T13:36:12.206Z,81.4
2022-08-20T13:37:22.321Z,83.9
2022-08-20T13:38:32.450Z,83.7
2022-08-20T13:39:42.565Z,85.5
2022-08-20T13:40:52.670Z,84.3
2022-08-20T13:42:02.804Z,85.9
2022-08-20T13:43:12.911Z,86.9
2022-08-20T13:44:23.027Z,84.8
2022-08-20T13:45:33.149Z,83.8
2022-08-20T13:46:43.278Z,83.6
2022-08-20T13:47:52.407Z,84.4
2022-08-20T13:49:02.529Z,84.3
2022-08-20T13:50:12.636Z,83.8
2022-08-20T13:51:22.757Z,84.2
2022-08-20T13:52:32.879Z,84.2
2022-08-20T13:53:42.991Z,84.7
2022-08-20T13:54:53.115Z,84.2
2022-08-20T13:56:02.252Z,84.8
2022-08-20T13:57:11.386Z,85.3
2022-08-20T13:58:20.525Z,85.1
2022-08-20T13:59:29.661Z,84.1
2022-08-20T14:00:39.775Z,84.3
2022-08-20T14:01:49.909Z,85
2022-08-20T14:03:00.019Z,84.8
2022-08-20T14:04:10.137Z,85.8
2022-08-20T14:05:20.248Z,84.5
2022-08-20T14:06:30.379Z,85.3
2022-08-20T14:07:40.501Z,85.1
2022-08-20T14:08:50.601Z,84.7
2022-08-20T14:10:00.723Z,85.1
2022-08-20T14:11:10.844Z,86
2022-08-20T14:12:20.969Z,85.7
2022-08-20T14:13:31.077Z,86.5
2022-08-20T14:14:40.207Z,86.5
2022-08-20T14:15:50.345Z,86.5
2022-08-20T14:17:00.444Z,85.6
2022-08-20T14:18:10.563Z,86.1
2022-08-20T14:19:20.688Z,86.2
2022-08-20T14:20:30.813Z,86.6
2022-08-20T14:21:40.929Z,87.8
2022-08-20T14:22:50.073Z,87.8
2022-08-20T14:23:59.206Z,85.9
2022-08-20T14:25:08.344Z,87.5
2022-08-20T14:26:17.471Z,88.9
2022-08-20T14:27:27.599Z,88.8
2022-08-20T14:28:37.715Z,88.6
2022-08-20T14:29:47.841Z,88.3
2022-08-20T14:30:57.954Z,88.3
2022-08-20T14:32:08.070Z,88
2022-08-20T14:33:18.182Z,88.7
2022-08-20T14:34:28.301Z,88.6
2022-08-20T14:35:38.425Z,88.9
2022-08-20T14:36:48.549Z,90
2022-08-20T14:37:58.660Z,89.7
2022-08-20T14:39:08.776Z,89.4
2022-08-20T14:40:18.904Z,89.1
2022-08-20T14:41:29.019Z,89.9
2022-08-20T14:42:38.156Z,90.4
2022-08-20T14:43:48.259Z,90.8
2022-08-20T14:44:58.375Z,91.3
2022-08-20T14:46:08.503Z,90.2
2022-08-20T14:47:18.610Z,90.8
2022-08-20T14:48:28.738Z,89.4
2022-08-20T14:49:37.884Z,90.5
2022-08-20T14:50:47.022Z,90.8
2022-08-20T14:51:57.139Z,89.6
2022-08-20T14:53:07.246Z,89.4
2022-08-20T14:54:17.378Z,89.5
2022-08-20T14:55:27.491Z,91
2022-08-20T14:56:37.596Z,90.6
2022-08-20T14:57:47.728Z,90.7
2022-08-20T14:58:57.848Z,91
2022-08-20T15:00:07.949Z,91
2022-08-20T15:01:18.082Z,90.9
2022-08-20T15:02:28.183Z,91.1
2022-08-20T15:03:38.303Z,90.2
2022-08-20T15:04:48.420Z,90.6
2022-08-20T15:05:58.550Z,91.2
2022-08-20T15:07:07.682Z,91.3
2022-08-20T15:08:17.797Z,91.5
2022-08-20T15:09:27.919Z,91.2
2022-08-20T15:10:38.029Z,91.1
2022-08-20T15:11:48.160Z,91.3
2022-08-20T15:12:58.263Z,92
2022-08-20T15:14:07.423Z,92
2022-08-20T15:15:16.544Z,91.8
2022-08-20T15:16:25.696Z,92.5
2022-08-20T15:17:34.832Z,92.6
2022-08-20T15:18:44.941Z,92.2
2022-08-20T15:19:55.059Z,92.8
2022-08-20T15:21:05.182Z,92.8
2022-08-20T15:22:15.292Z,92.6
2022-08-20T15:23:25.415Z,92.7
2022-08-20T15:24:35.528Z,93
2022-08-20T15:25:45.659Z,92.1
2022-08-20T15:26:55.761Z,92.6
2022-08-20T15:28:05.887Z,93
2022-08-20T15:29:16.013Z,92.9
2022-08-20T15:31:36.242Z,92.3
2022-08-20T15:32:46.367Z,91.5
2022-08-20T15:33:55.488Z,92
2022-08-20T15:35:05.607Z,92.2
2022-08-20T15:36:15.726Z,91.9
2022-08-20T15:37:25.846Z,91.7
2022-08-20T15:38:35.970Z,91.6
2022-08-20T15:39:46.073Z,91.6
2022-08-20T15:40:56.200Z,92.2
2022-08-20T15:42:05.350Z,91.4
2022-08-20T15:43:14.479Z,92.1
2022-08-20T15:44:24.605Z,91.6
2022-08-20T15:45:33.747Z,91.7
2022-08-20T15:46:42.871Z,91.9
2022-08-20T15:47:53.003Z,91.9
2022-08-20T15:49:03.121Z,91.2
2022-08-20T15:50:13.234Z,90.1